createdAt,value
2019-01-10T00:17:40.938Z,9.30
2019-01-10T00:20:19.290Z,9.67
2019-01-10T00:22:55.676Z,11.47
2019-01-10T00:25:27.566Z,9.53
2019-01-10T00:28:00.201Z,13.25
2019-01-10T00:30:32.577Z,15.65
2019-01-10T00:33:08.290Z,18.92
2019-01-10T00:35:41.962Z,13.20
2019-01-10T00:38:24.681Z,11.90
2019-01-10T00:40:57.982Z,11.50
2019-01-10T00:43:44.453Z,10.87
2019-01-10T00:46:39.545Z,10.57
2019-01-10T00:49:10.927Z,11.23
2019-01-10T00:51:41.861Z,10.80
2019-01-10T00:54:17.954Z,9.63
2019-01-10T00:56:48.051Z,10.83
2019-01-10T00:59:21.936Z,10.20
2019-01-10T01:01:52.990Z,10.10
2019-01-10T01:04:25.842Z,10.67
2019-01-10T01:06:57.625Z,11.13
2019-01-10T01:09:32.998Z,10.83
2019-01-10T01:12:08.724Z,16.97
2019-01-10T01:14:42.931Z,12.87
2019-01-10T01:17:15.867Z,12.83
2019-01-10T01:19:50.211Z,13.07
2019-01-10T01:22:21.491Z,11.40
2019-01-10T01:25:09.292Z,13.10
2019-01-10T01:27:48.905Z,16.33
2019-01-10T01:30:31.700Z,12.03
2019-01-10T01:33:05.774Z,11.87
2019-01-10T01:35:39.543Z,10.87
2019-01-10T01:38:19.002Z,10.27
2019-01-10T01:40:49.150Z,10.47
2019-01-10T01:43:31.133Z,10.50
2019-01-10T01:46:03.664Z,11.30
2019-01-10T01:48:35.286Z,11.60
2019-01-10T01:51:06.738Z,10.57
2019-01-10T01:53:39.616Z,10.50
2019-01-10T01:56:14.325Z,10.67
2019-01-10T01:58:46.161Z,9.77
2019-01-10T02:01:26.415Z,15.90
2019-01-10T02:04:03.843Z,11.40
2019-01-10T02:06:37.731Z,10.37
2019-01-10T02:09:15.799Z,10.10
2019-01-10T02:11:53.759Z,9.17
2019-01-10T02:14:27.233Z,10.00
2019-01-10T02:17:01.155Z,10.53
2019-01-10T02:19:37.510Z,10.20
2019-01-10T02:22:07.368Z,11.00
2019-01-10T02:24:54.879Z,10.00
2019-01-10T02:27:26.235Z,10.93
2019-01-10T02:30:02.567Z,10.43
2019-01-10T02:32:34.738Z,9.70
2019-01-10T02:35:04.874Z,9.47
2019-01-10T02:37:41.760Z,10.57
2019-01-10T02:40:13.563Z,10.70
2019-01-10T02:42:48.238Z,16.57
2019-01-10T02:45:23.214Z,11.73
2019-01-10T02:47:53.996Z,15.63
2019-01-10T02:50:34.712Z,21.30
2019-01-10T02:53:23.529Z,27.97
2019-01-10T02:55:54.807Z,15.47
2019-01-10T02:58:27.882Z,18.07
2019-01-10T03:00:59.255Z,18.20
2019-01-10T03:03:34.136Z,20.30
2019-01-10T03:06:09.694Z,16.00
2019-01-10T03:08:45.415Z,23.67
2019-01-10T03:11:16.322Z,15.97
2019-01-10T03:13:51.977Z,17.93
2019-01-10T03:16:25.527Z,17.43
2019-01-10T03:19:05.516Z,15.00
2019-01-10T03:21:39.702Z,13.47
2019-01-10T03:24:14.559Z,12.13
2019-01-10T03:26:50.038Z,11.73
2019-01-10T03:29:19.413Z,12.60
2019-01-10T03:31:51.685Z,16.30
2019-01-10T03:34:22.035Z,16.13
2019-01-10T03:36:52.796Z,14.43
2019-01-10T03:39:26.279Z,18.03
2019-01-10T03:42:05.215Z,17.10
2019-01-10T03:44:35.278Z,15.83
2019-01-10T03:47:20.563Z,15.50
2019-01-10T03:49:54.307Z,14.63
2019-01-10T03:52:26.478Z,15.57
2019-01-10T03:55:14.944Z,14.33
2019-01-10T03:57:51.505Z,13.47
2019-01-10T04:00:31.026Z,10.33
2019-01-10T04:03:01.012Z,10.43
2019-01-10T04:05:40.017Z,11.43
2019-01-10T04:08:31.211Z,35.33
2019-01-10T04:11:10.052Z,30.13
2019-01-10T04:13:57.053Z,18.50
2019-01-10T04:16:22.320Z,18.10
2019-01-10T04:18:58.220Z,15.40
2019-01-10T04:21:38.443Z,15.33
2019-01-10T04:24:09.426Z,16.10
2019-01-10T04:26:46.122Z,14.93
2019-01-10T04:29:21.519Z,14.07
2019-01-10T04:31:51.668Z,14.13
2019-01-10T04:34:24.650Z,15.97
2019-01-10T04:36:57.487Z,12.70
2019-01-10T04:39:36.788Z,12.63
2019-01-10T04:42:09.014Z,12.50
2019-01-10T04:44:44.549Z,13.37
2019-01-10T04:47:17.191Z,13.60
2019-01-10T04:50:07.020Z,12.63
2019-01-10T05:28:09.782Z,28.97
2019-01-10T05:35:30.422Z,10.13
2019-01-10T05:52:14.232Z,14.57
2019-01-10T05:55:37.498Z,14.90
2019-01-10T06:03:01.435Z,16.33
2019-01-10T06:13:32.706Z,12.83
2019-01-10T06:16:35.433Z,13.30
2019-01-10T06:26:57.165Z,13.77
2019-01-10T06:30:19.613Z,16.23
2019-01-10T06:34:01.100Z,13.63
2019-01-10T06:37:30.428Z,12.90
2019-01-10T06:40:46.824Z,12.70
2019-01-10T06:44:16.531Z,13.37
2019-01-10T06:47:19.316Z,13.33
2019-01-10T06:50:11.555Z,13.30
2019-01-10T07:00:51.666Z,14.77
2019-01-10T07:08:02.580Z,14.57
2019-01-10T07:14:53.625Z,12.90
2019-01-10T07:21:31.663Z,12.53
2019-01-10T07:24:59.884Z,14.30
2019-01-10T07:27:59.945Z,13.23
2019-01-10T07:31:30.234Z,13.17
2019-01-10T07:45:50.844Z,13.60
2019-01-10T07:49:29.370Z,17.40
2019-01-10T07:55:50.511Z,17.93
2019-01-10T07:58:20.751Z,17.67
2019-01-10T08:00:50.319Z,16.70
2019-01-10T08:03:21.603Z,15.57
2019-01-10T08:05:51.370Z,23.10
2019-01-10T08:08:20.941Z,23.13
2019-01-10T08:10:52.221Z,23.53
2019-01-10T08:13:23.858Z,18.70
2019-01-10T08:15:54.866Z,18.30
2019-01-10T08:18:24.903Z,15.20
2019-01-10T08:20:55.132Z,17.73
2019-01-10T08:23:25.211Z,16.47
2019-01-10T08:25:55.275Z,15.23
2019-01-10T08:28:26.069Z,16.97
2019-01-10T08:30:57.662Z,15.23
2019-01-10T08:33:28.143Z,15.67
2019-01-10T08:35:59.734Z,18.70
2019-01-10T08:38:34.368Z,16.57
2019-01-10T08:41:05.324Z,17.23
2019-01-10T08:43:36.602Z,16.10
2019-01-10T08:46:18.935Z,14.63
2019-01-10T08:48:59.227Z,16.00
2019-01-10T08:54:33.933Z,17.37
2019-01-10T08:57:06.745Z,15.73
2019-01-10T08:59:37.409Z,16.43
2019-01-10T09:02:10.693Z,15.80
2019-01-10T09:04:44.494Z,14.50
2019-01-10T09:07:16.587Z,14.23
2019-01-10T09:09:49.694Z,13.97
2019-01-10T09:12:22.679Z,16.60
2019-01-10T09:14:53.985Z,14.00
2019-01-10T09:17:23.875Z,13.00
2019-01-10T09:19:57.959Z,11.73
2019-01-10T09:22:35.166Z,11.53
2019-01-10T09:25:09.868Z,13.17
2019-01-10T09:27:45.660Z,13.27
2019-01-10T09:30:38.765Z,12.27
2019-01-10T09:33:11.955Z,10.90
2019-01-10T09:35:43.507Z,12.47
2019-01-10T09:38:19.647Z,12.00
2019-01-10T09:40:50.846Z,12.03
2019-01-10T09:43:25.482Z,11.93
2019-01-10T09:45:55.859Z,13.60
2019-01-10T09:48:26.559Z,12.77
2019-01-10T09:51:00.179Z,12.97
2019-01-10T09:53:31.870Z,14.03
2019-01-10T09:56:01.886Z,13.03
2019-01-10T09:58:43.938Z,12.37
2019-01-10T10:01:14.869Z,13.47
2019-01-10T10:03:46.856Z,10.83
2019-01-10T10:06:23.266Z,11.20
2019-01-10T10:09:00.750Z,12.83
2019-01-10T10:11:34.214Z,10.83
2019-01-10T10:14:03.685Z,10.00
2019-01-10T10:16:33.995Z,11.37
2019-01-10T10:19:05.094Z,11.27
2019-01-10T10:21:40.180Z,10.83
2019-01-10T10:24:18.914Z,10.20
2019-01-10T10:26:50.271Z,10.60
2019-01-10T10:29:22.750Z,11.13
2019-01-10T10:31:53.746Z,10.87
2019-01-10T10:34:25.708Z,10.47
2019-01-10T10:36:59.461Z,10.43
2019-01-10T10:39:33.583Z,11.50
2019-01-10T10:42:06.921Z,10.00
2019-01-10T10:44:39.287Z,11.50
2019-01-10T10:47:12.669Z,11.90
2019-01-10T10:49:43.326Z,9.30
2019-01-10T10:52:16.036Z,11.73
2019-01-10T10:54:50.875Z,11.53
2019-01-10T10:57:33.244Z,9.13
2019-01-10T11:00:53.773Z,10.60
2019-01-10T11:07:48.642Z,10.57
2019-01-10T11:11:40.380Z,9.90
2019-01-10T11:14:52.400Z,9.77
2019-01-10T11:59:21.546Z,10.03
2019-01-10T12:02:41.649Z,11.07
2019-01-10T13:01:09.579Z,12.13
2019-01-10T13:08:03.975Z,10.90
2019-01-10T13:11:36.798Z,11.53
2019-01-10T13:40:26.919Z,10.97
2019-01-10T13:50:11.335Z,11.00
2019-01-10T13:53:16.612Z,10.70
2019-01-10T13:56:40.586Z,11.50
2019-01-10T13:59:46.450Z,11.37
2019-01-10T14:13:31.685Z,10.43
2019-01-10T14:17:04.479Z,12.77
2019-01-10T14:20:44.262Z,13.63
2019-01-10T14:23:58.986Z,10.77
2019-01-10T14:55:57.279Z,12.37
2019-01-10T15:07:00.313Z,11.60
2019-01-10T15:17:55.171Z,12.30
2019-01-10T15:35:29.271Z,19.27
2019-01-10T15:42:38.241Z,13.90
2019-01-10T15:50:02.654Z,13.50
2019-01-10T15:53:38.724Z,13.20
2019-01-10T16:11:02.732Z,18.43
2019-01-10T16:21:43.466Z,13.80
2019-01-10T17:46:37.301Z,9.93
2019-01-10T18:41:11.986Z,4.87
2019-01-10T18:43:43.641Z,5.17
2019-01-10T18:46:13.911Z,5.30
2019-01-10T18:48:45.578Z,4.40
2019-01-10T18:51:21.445Z,4.67
2019-01-10T18:53:52.851Z,5.20
2019-01-10T18:56:23.405Z,4.57
2019-01-10T18:59:12.977Z,4.83
2019-01-10T19:01:53.229Z,4.93
2019-01-10T19:04:25.141Z,5.80
2019-01-10T19:06:59.677Z,5.73
2019-01-10T19:09:40.125Z,6.27
2019-01-10T19:30:42.148Z,5.33
2019-01-10T19:38:33.802Z,7.73
2019-01-10T19:45:32.730Z,7.90
2019-01-10T20:00:03.548Z,7.83
2019-01-10T20:06:46.074Z,7.70
2019-01-10T20:24:58.006Z,11.27
2019-01-10T20:55:35.795Z,8.67
2019-01-10T21:10:05.877Z,9.57
2019-01-10T21:20:43.638Z,8.13
2019-01-10T21:23:48.446Z,7.20
2019-01-10T21:49:20.563Z,7.00
2019-01-10T21:56:37.642Z,6.80
2019-01-10T22:03:39.900Z,6.80
2019-01-10T22:07:04.642Z,7.67
2019-01-10T22:09:55.693Z,7.50
2019-01-10T22:16:20.061Z,7.67
2019-01-10T22:51:53.440Z,7.50
2019-01-10T23:06:59.372Z,6.00
2019-01-10T23:17:37.661Z,7.57
2019-01-10T23:20:57.577Z,6.57
2019-01-10T23:31:53.199Z,6.33
2019-01-10T23:35:02.764Z,7.00
2019-01-10T23:45:39.399Z,6.70
2019-01-10T23:48:47.508Z,6.63
2019-01-10T23:52:15.863Z,6.33
2019-01-10T23:55:45.394Z,7.10
2019-01-10T23:59:08.436Z,6.50
